sensor_id;sensor_type;location;lat;lon;timestamp;pressure;altitude;pressure_sealevel;temperature;humidity
77333;BME280;66408;51.326;12.070;2023-06-14T00:01:14;100721.94;;;15.99;51.56
77333;BME280;66408;51.326;12.070;2023-06-14T00:03:40;100725.56;;;15.91;51.59
77333;BME280;66408;51.326;12.070;2023-06-14T00:06:07;100718.13;;;15.92;51.88
77333;BME280;66408;51.326;12.070;2023-06-14T00:08:34;100724.53;;;15.96;51.78
77333;BME280;66408;51.326;12.070;2023-06-14T00:11:01;100718.78;;;15.89;51.91
77333;BME280;66408;51.326;12.070;2023-06-14T00:13:27;100721.03;;;15.87;51.91
77333;BME280;66408;51.326;12.070;2023-06-14T00:15:54;100716.22;;;15.84;52.27
77333;BME280;66408;51.326;12.070;2023-06-14T00:18:22;100727.69;;;15.77;52.33
77333;BME280;66408;51.326;12.070;2023-06-14T00:20:50;100712.09;;;15.69;52.44
77333;BME280;66408;51.326;12.070;2023-06-14T00:23:18;100725.66;;;15.65;52.65
77333;BME280;66408;51.326;12.070;2023-06-14T00:25:45;100717.25;;;15.62;52.81
77333;BME280;66408;51.326;12.070;2023-06-14T00:28:11;100727.75;;;15.60;52.70
77333;BME280;66408;51.326;12.070;2023-06-14T00:30:38;100727.09;;;15.54;53.01
77333;BME280;66408;51.326;12.070;2023-06-14T00:33:05;100723.28;;;15.55;53.17
77333;BME280;66408;51.326;12.070;2023-06-14T00:35:31;100722.47;;;15.55;53.16
77333;BME280;66408;51.326;12.070;2023-06-14T00:37:58;100719.72;;;15.55;53.36
77333;BME280;66408;51.326;12.070;2023-06-14T00:40:26;100716.16;;;15.54;53.27
77333;BME280;66408;51.326;12.070;2023-06-14T00:42:52;100720.66;;;15.50;53.45
77333;BME280;66408;51.326;12.070;2023-06-14T00:45:19;100709.41;;;15.43;53.63
77333;BME280;66408;51.326;12.070;2023-06-14T00:47:46;100717.16;;;15.41;53.72
77333;BME280;66408;51.326;12.070;2023-06-14T00:50:14;100718.28;;;15.40;53.81
77333;BME280;66408;51.326;12.070;2023-06-14T00:52:41;100717.47;;;15.39;53.96
77333;BME280;66408;51.326;12.070;2023-06-14T00:55:08;100719.56;;;15.34;54.06
77333;BME280;66408;51.326;12.070;2023-06-14T00:57:34;100719.75;;;15.29;54.36
77333;BME280;66408;51.326;12.070;2023-06-14T01:00:04;100717.81;;;15.21;54.46
77333;BME280;66408;51.326;12.070;2023-06-14T01:02:36;100721.72;;;15.11;54.80
77333;BME280;66408;51.326;12.070;2023-06-14T01:05:05;100719.78;;;15.03;55.19
77333;BME280;66408;51.326;12.070;2023-06-14T01:07:55;100721.72;;;15.11;55.06
77333;BME280;66408;51.326;12.070;2023-06-14T01:15:55;100730.25;;;15.09;54.90
77333;BME280;66408;51.326;12.070;2023-06-14T01:18:23;100723.81;;;15.05;55.14
77333;BME280;66408;51.326;12.070;2023-06-14T01:20:50;100726.56;;;15.05;55.33
77333;BME280;66408;51.326;12.070;2023-06-14T01:26:38;100723.34;;;14.95;55.68
77333;BME280;66408;51.326;12.070;2023-06-14T01:29:13;100729.47;;;14.83;55.92
77333;BME280;66408;51.326;12.070;2023-06-14T01:31:43;100719.81;;;14.77;56.19
77333;BME280;66408;51.326;12.070;2023-06-14T01:34:11;100720.63;;;14.69;56.46
77333;BME280;66408;51.326;12.070;2023-06-14T01:36:40;100718.50;;;14.74;56.33
77333;BME280;66408;51.326;12.070;2023-06-14T01:39:08;100725.09;;;14.65;56.51
77333;BME280;66408;51.326;12.070;2023-06-14T01:41:36;100720.75;;;14.55;56.88
77333;BME280;66408;51.326;12.070;2023-06-14T01:44:03;100724.78;;;14.58;56.95
77333;BME280;66408;51.326;12.070;2023-06-14T01:46:31;100725.88;;;14.48;57.21
77333;BME280;66408;51.326;12.070;2023-06-14T01:48:58;100723.97;;;14.49;57.26
77333;BME280;66408;51.326;12.070;2023-06-14T01:51:25;100728.47;;;14.53;57.21
77333;BME280;66408;51.326;12.070;2023-06-14T01:53:51;100733.16;;;14.53;57.22
77333;BME280;66408;51.326;12.070;2023-06-14T01:56:19;100724.13;;;14.52;57.36
77333;BME280;66408;51.326;12.070;2023-06-14T01:58:46;100730.72;;;14.51;57.46
77333;BME280;66408;51.326;12.070;2023-06-14T02:01:13;100735.75;;;14.58;57.28
77333;BME280;66408;51.326;12.070;2023-06-14T02:03:43;100733.16;;;14.53;57.21
77333;BME280;66408;51.326;12.070;2023-06-14T02:06:11;100731.72;;;14.55;57.23
77333;BME280;66408;51.326;12.070;2023-06-14T02:08:38;100735.22;;;14.47;57.38
77333;BME280;66408;51.326;12.070;2023-06-14T02:11:05;100735.22;;;14.47;57.31
77333;BME280;66408;51.326;12.070;2023-06-14T02:13:31;100730.22;;;14.41;57.59
77333;BME280;66408;51.326;12.070;2023-06-14T02:15:58;100740.38;;;14.40;57.73
77333;BME280;66408;51.326;12.070;2023-06-14T02:18:26;100734.53;;;14.33;57.73
77333;BME280;66408;51.326;12.070;2023-06-14T02:20:53;100737.75;;;14.35;57.87
77333;BME280;66408;51.326;12.070;2023-06-14T02:23:20;100735.66;;;14.32;57.82
77333;BME280;66408;51.326;12.070;2023-06-14T02:25:46;100739.03;;;14.29;58.18
77333;BME280;66408;51.326;12.070;2023-06-14T02:28:13;100731.94;;;14.19;58.69
77333;BME280;66408;51.326;12.070;2023-06-14T02:30:39;100733.19;;;14.13;58.76
77333;BME280;66408;51.326;12.070;2023-06-14T02:33:07;100731.06;;;14.10;58.70
77333;BME280;66408;51.326;12.070;2023-06-14T02:35:34;100732.06;;;14.06;59.29
77333;BME280;66408;51.326;12.070;2023-06-14T02:38:01;100734.09;;;14.00;59.48
77333;BME280;66408;51.326;12.070;2023-06-14T02:40:27;100731.25;;;14.05;59.37
77333;BME280;66408;51.326;12.070;2023-06-14T02:42:54;100740.19;;;13.88;59.98
77333;BME280;66408;51.326;12.070;2023-06-14T02:45:20;100742.09;;;13.88;60.11
77333;BME280;66408;51.326;12.070;2023-06-14T02:47:47;100751.41;;;13.78;60.37
77333;BME280;66408;51.326;12.070;2023-06-14T02:50:15;100740.97;;;13.80;60.57
77333;BME280;66408;51.326;12.070;2023-06-14T02:52:42;100739.84;;;13.81;60.46
77333;BME280;66408;51.326;12.070;2023-06-14T02:55:11;100743.06;;;13.83;60.47
77333;BME280;66408;51.326;12.070;2023-06-14T02:57:38;100743.31;;;13.73;60.81
77333;BME280;66408;51.326;12.070;2023-06-14T03:00:05;100748.03;;;13.81;60.45
77333;BME280;66408;51.326;12.070;2023-06-14T03:02:36;100748.88;;;13.90;60.27
77333;BME280;66408;51.326;12.070;2023-06-14T03:05:03;100751.88;;;13.80;60.45
77333;BME280;66408;51.326;12.070;2023-06-14T03:07:30;100746.44;;;13.89;60.01
77333;BME280;66408;51.326;12.070;2023-06-14T03:09:56;100745.00;;;13.83;60.35
77333;BME280;66408;51.326;12.070;2023-06-14T03:12:23;100748.56;;;13.92;60.32
77333;BME280;66408;51.326;12.070;2023-06-14T03:14:50;100747.44;;;13.93;60.24
77333;BME280;66408;51.326;12.070;2023-06-14T03:17:18;100755.16;;;13.91;60.32
77333;BME280;66408;51.326;12.070;2023-06-14T03:19:45;100757.38;;;13.89;60.52
77333;BME280;66408;51.326;12.070;2023-06-14T03:22:12;100757.69;;;13.87;60.57
77333;BME280;66408;51.326;12.070;2023-06-14T03:24:39;100758.66;;;13.83;60.65
77333;BME280;66408;51.326;12.070;2023-06-14T03:27:05;100768.50;;;13.92;60.43
77333;BME280;66408;51.326;12.070;2023-06-14T03:29:32;100762.22;;;13.92;60.61
77333;BME280;66408;51.326;12.070;2023-06-14T03:32:02;100764.03;;;13.96;60.51
77333;BME280;66408;51.326;12.070;2023-06-14T03:34:29;100768.53;;;14.01;60.51
77333;BME280;66408;51.326;12.070;2023-06-14T03:36:56;100771.75;;;14.03;60.33
77333;BME280;66408;51.326;12.070;2023-06-14T03:39:23;100771.63;;;14.08;60.45
77333;BME280;66408;51.326;12.070;2023-06-14T03:41:50;100770.97;;;14.11;60.28
77333;BME280;66408;51.326;12.070;2023-06-14T03:44:18;100775.66;;;14.11;60.34
77333;BME280;66408;51.326;12.070;2023-06-14T03:46:45;100789.66;;;14.09;60.55
77333;BME280;66408;51.326;12.070;2023-06-14T03:49:13;100788.50;;;14.10;60.67
77333;BME280;66408;51.326;12.070;2023-06-14T03:51:39;100793.50;;;14.08;60.97
77333;BME280;66408;51.326;12.070;2023-06-14T03:54:07;100800.72;;;14.04;61.03
77333;BME280;66408;51.326;12.070;2023-06-14T03:56:53;100800.72;;;14.04;61.23
77333;BME280;66408;51.326;12.070;2023-06-14T03:59:26;100798.78;;;14.05;61.31
77333;BME280;66408;51.326;12.070;2023-06-14T04:01:54;100807.00;;;14.05;61.20
77333;BME280;66408;51.326;12.070;2023-06-14T04:04:21;100807.19;;;14.08;61.52
77333;BME280;66408;51.326;12.070;2023-06-14T04:06:48;100813.13;;;14.10;61.38
77333;BME280;66408;51.326;12.070;2023-06-14T04:09:15;100819.09;;;14.12;61.43
77333;BME280;66408;51.326;12.070;2023-06-14T04:11:42;100809.31;;;14.20;61.14
77333;BME280;66408;51.326;12.070;2023-06-14T04:14:08;100813.81;;;14.24;61.03
77333;BME280;66408;51.326;12.070;2023-06-14T04:16:35;100813.19;;;14.27;61.12
77333;BME280;66408;51.326;12.070;2023-06-14T04:19:02;100804.81;;;14.24;60.92
77333;BME280;66408;51.326;12.070;2023-06-14T04:21:28;100816.44;;;14.29;61.17
77333;BME280;66408;51.326;12.070;2023-06-14T04:23:55;100815.84;;;14.41;60.76
77333;BME280;66408;51.326;12.070;2023-06-14T04:26:22;100820.38;;;14.46;60.70
77333;BME280;66408;51.326;12.070;2023-06-14T04:28:53;100817.31;;;14.47;60.63
77333;BME280;66408;51.326;12.070;2023-06-14T04:31:23;100821.97;;;14.47;60.63
77333;BME280;66408;51.326;12.070;2023-06-14T04:33:52;100827.63;;;14.50;60.56
77333;BME280;66408;51.326;12.070;2023-06-14T04:36:20;100825.19;;;14.49;61.04
77333;BME280;66408;51.326;12.070;2023-06-14T04:38:46;100829.72;;;14.53;60.80
77333;BME280;66408;51.326;12.070;2023-06-14T04:41:15;100829.91;;;14.57;60.71
77333;BME280;66408;51.326;12.070;2023-06-14T04:43:42;100828.13;;;14.61;60.48
77333;BME280;66408;51.326;12.070;2023-06-14T04:46:09;100832.59;;;14.48;60.74
77333;BME280;66408;51.326;12.070;2023-06-14T04:48:38;100828.50;;;14.37;61.26
77333;BME280;66408;51.326;12.070;2023-06-14T04:51:08;100834.53;;;14.48;61.14
77333;BME280;66408;51.326;12.070;2023-06-14T04:53:35;100834.41;;;14.53;61.21
77333;BME280;66408;51.326;12.070;2023-06-14T04:56:02;100838.13;;;14.65;60.99
77333;BME280;66408;51.326;12.070;2023-06-14T04:58:30;100836.69;;;14.68;60.57
77333;BME280;66408;51.326;12.070;2023-06-14T05:00:57;100833.97;;;14.68;60.74
77333;BME280;66408;51.326;12.070;2023-06-14T05:03:25;100833.78;;;14.56;61.10
77333;BME280;66408;51.326;12.070;2023-06-14T05:05:53;100834.13;;;14.71;61.09
77333;BME280;66408;51.326;12.070;2023-06-14T05:08:22;100835.44;;;14.83;60.61
77333;BME280;66408;51.326;12.070;2023-06-14T05:10:53;100830.97;;;14.95;60.20
77333;BME280;66408;51.326;12.070;2023-06-14T05:13:19;100823.06;;;15.02;59.45
77333;BME280;66408;51.326;12.070;2023-06-14T05:15:47;100825.16;;;15.05;59.37
77333;BME280;66408;51.326;12.070;2023-06-14T05:18:14;100828.72;;;15.06;59.13
77333;BME280;66408;51.326;12.070;2023-06-14T05:20:42;100828.22;;;15.13;59.39
77333;BME280;66408;51.326;12.070;2023-06-14T05:23:09;100830.13;;;15.21;59.20
77333;BME280;66408;51.326;12.070;2023-06-14T05:25:45;100826.91;;;15.36;58.58
77333;BME280;66408;51.326;12.070;2023-06-14T05:28:12;100834.66;;;15.42;58.88
77333;BME280;66408;51.326;12.070;2023-06-14T05:30:39;100832.22;;;15.50;58.69
77333;BME280;66408;51.326;12.070;2023-06-14T05:33:06;100843.88;;;15.55;58.45
77333;BME280;66408;51.326;12.070;2023-06-14T05:35:33;100838.69;;;15.54;58.47
77333;BME280;66408;51.326;12.070;2023-06-14T05:38:00;100837.25;;;15.65;58.18
77333;BME280;66408;51.326;12.070;2023-06-14T05:40:26;100840.16;;;15.68;58.02
77333;BME280;66408;51.326;12.070;2023-06-14T05:42:53;100840.44;;;15.75;57.89
77333;BME280;66408;51.326;12.070;2023-06-14T05:45:20;100846.56;;;15.90;57.64
77333;BME280;66408;51.326;12.070;2023-06-14T05:47:46;100844.78;;;15.94;57.55
77333;BME280;66408;51.326;12.070;2023-06-14T05:50:13;100847.84;;;15.92;57.47
77333;BME280;66408;51.326;12.070;2023-06-14T05:52:40;100852.50;;;16.00;56.76
77333;BME280;66408;51.326;12.070;2023-06-14T05:55:06;100858.13;;;16.04;56.55
77333;BME280;66408;51.326;12.070;2023-06-14T05:57:33;100860.34;;;16.19;56.58
77333;BME280;66408;51.326;12.070;2023-06-14T06:00:00;100854.50;;;16.29;56.12
77333;BME280;66408;51.326;12.070;2023-06-14T06:02:27;100862.38;;;16.39;55.86
77333;BME280;66408;51.326;12.070;2023-06-14T06:04:53;100859.41;;;16.53;55.79
77333;BME280;66408;51.326;12.070;2023-06-14T06:07:20;100866.28;;;16.59;55.16
77333;BME280;66408;51.326;12.070;2023-06-14T06:09:47;100861.25;;;16.70;54.92
77333;BME280;66408;51.326;12.070;2023-06-14T06:12:14;100851.00;;;16.87;54.85
77333;BME280;66408;51.326;12.070;2023-06-14T06:14:42;100862.31;;;17.07;54.71
77333;BME280;66408;51.326;12.070;2023-06-14T06:17:09;100869.75;;;17.06;54.15
77333;BME280;66408;51.326;12.070;2023-06-14T06:19:36;100863.00;;;17.24;54.14
77333;BME280;66408;51.326;12.070;2023-06-14T06:22:03;100876.56;;;17.30;53.55
77333;BME280;66408;51.326;12.070;2023-06-14T06:24:32;100868.38;;;17.42;53.27
77333;BME280;66408;51.326;12.070;2023-06-14T06:26:59;100868.50;;;17.66;53.09
77333;BME280;66408;51.326;12.070;2023-06-14T06:29:26;100865.75;;;17.99;52.25
77333;BME280;66408;51.326;12.070;2023-06-14T06:31:53;100870.69;;;18.18;51.24
77333;BME280;66408;51.326;12.070;2023-06-14T06:34:19;100865.69;;;18.32;50.60
77333;BME280;66408;51.326;12.070;2023-06-14T06:36:46;100869.06;;;18.62;50.11
77333;BME280;66408;51.326;12.070;2023-06-14T06:39:13;100877.31;;;18.98;49.16
77333;BME280;66408;51.326;12.070;2023-06-14T06:41:41;100887.47;;;19.22;48.64
77333;BME280;66408;51.326;12.070;2023-06-14T06:44:08;100879.75;;;19.40;48.08
77333;BME280;66408;51.326;12.070;2023-06-14T06:46:37;100876.59;;;19.54;47.76
77333;BME280;66408;51.326;12.070;2023-06-14T06:49:08;100872.00;;;19.86;47.37
77333;BME280;66408;51.326;12.070;2023-06-14T06:51:35;100877.91;;;20.16;46.19
77333;BME280;66408;51.326;12.070;2023-06-14T06:54:03;100872.97;;;20.37;45.58
77333;BME280;66408;51.326;12.070;2023-06-14T06:56:30;100877.97;;;20.63;45.47
77333;BME280;66408;51.326;12.070;2023-06-14T06:58:58;100870.25;;;20.88;45.14
77333;BME280;66408;51.326;12.070;2023-06-14T07:01:24;100868.97;;;21.01;44.05
77333;BME280;66408;51.326;12.070;2023-06-14T07:03:52;100866.72;;;21.06;44.29
77333;BME280;66408;51.326;12.070;2023-06-14T07:06:19;100875.22;;;21.33;43.39
77333;BME280;66408;51.326;12.070;2023-06-14T07:08:46;100872.59;;;21.40;43.58
77333;BME280;66408;51.326;12.070;2023-06-14T07:11:15;100882.88;;;21.39;42.55
77333;BME280;66408;51.326;12.070;2023-06-14T07:13:41;100896.66;;;21.36;42.67
77333;BME280;66408;51.326;12.070;2023-06-14T07:16:08;100891.78;;;21.48;42.46
77333;BME280;66408;51.326;12.070;2023-06-14T07:18:34;100899.56;;;21.62;42.52
77333;BME280;66408;51.326;12.070;2023-06-14T07:21:01;100897.88;;;21.58;42.25
77333;BME280;66408;51.326;12.070;2023-06-14T07:23:28;100889.72;;;21.65;42.27
77333;BME280;66408;51.326;12.070;2023-06-14T07:25:55;100885.88;;;21.69;42.37
77333;BME280;66408;51.326;12.070;2023-06-14T07:28:21;100884.34;;;21.72;41.66
77333;BME280;66408;51.326;12.070;2023-06-14T07:30:49;100880.53;;;21.80;41.95
77333;BME280;66408;51.326;12.070;2023-06-14T07:33:19;100882.84;;;21.97;41.13
77333;BME280;66408;51.326;12.070;2023-06-14T07:35:46;100885.16;;;22.14;41.12
77333;BME280;66408;51.326;12.070;2023-06-14T07:38:14;100889.06;;;22.33;41.23
77333;BME280;66408;51.326;12.070;2023-06-14T07:40:40;100887.47;;;22.32;40.41
77333;BME280;66408;51.326;12.070;2023-06-14T07:43:07;100881.13;;;22.31;40.33
77333;BME280;66408;51.326;12.070;2023-06-14T07:45:34;100876.28;;;22.05;40.32
77333;BME280;66408;51.326;12.070;2023-06-14T07:48:00;100879.88;;;22.06;41.03
77333;BME280;66408;51.326;12.070;2023-06-14T07:50:27;100868.78;;;22.06;40.50
77333;BME280;66408;51.326;12.070;2023-06-14T07:52:55;100886.03;;;22.18;40.40
77333;BME280;66408;51.326;12.070;2023-06-14T07:55:21;100882.66;;;22.29;39.57
77333;BME280;66408;51.326;12.070;2023-06-14T07:57:48;100884.56;;;22.47;39.65
77333;BME280;66408;51.326;12.070;2023-06-14T08:00:16;100885.28;;;22.44;38.92
77333;BME280;66408;51.326;12.070;2023-06-14T08:02:46;100894.16;;;22.31;38.77
77333;BME280;66408;51.326;12.070;2023-06-14T08:05:13;100886.84;;;22.42;38.52
77333;BME280;66408;51.326;12.070;2023-06-14T08:07:41;100881.03;;;22.50;38.19
77333;BME280;66408;51.326;12.070;2023-06-14T08:10:08;100885.22;;;22.64;38.06
77333;BME280;66408;51.326;12.070;2023-06-14T08:12:35;100880.47;;;22.87;38.66
77333;BME280;66408;51.326;12.070;2023-06-14T08:15:03;100883.69;;;23.19;38.48
77333;BME280;66408;51.326;12.070;2023-06-14T08:17:40;100887.59;;;23.44;36.95
77333;BME280;66408;51.326;12.070;2023-06-14T08:20:07;100878.66;;;22.98;35.82
77333;BME280;66408;51.326;12.070;2023-06-14T08:22:34;100880.59;;;22.71;36.79
77333;BME280;66408;51.326;12.070;2023-06-14T08:25:02;100879.41;;;22.95;37.72
77333;BME280;66408;51.326;12.070;2023-06-14T08:27:30;100879.22;;;23.11;37.33
77333;BME280;66408;51.326;12.070;2023-06-14T08:29:57;100885.81;;;23.29;36.79
77333;BME280;66408;51.326;12.070;2023-06-14T08:32:23;100883.59;;;23.42;36.50
77333;BME280;66408;51.326;12.070;2023-06-14T08:34:50;100886.38;;;23.42;34.95
77333;BME280;66408;51.326;12.070;2023-06-14T08:37:30;100878.78;;;23.35;34.99
77333;BME280;66408;51.326;12.070;2023-06-14T08:39:57;100885.28;;;23.50;34.82
77333;BME280;66408;51.326;12.070;2023-06-14T08:42:24;100883.50;;;23.61;35.08
77333;BME280;66408;51.326;12.070;2023-06-14T08:44:58;100879.31;;;23.78;34.81
77333;BME280;66408;51.326;12.070;2023-06-14T08:47:26;100885.06;;;23.99;34.43
77333;BME280;66408;51.326;12.070;2023-06-14T08:49:53;100883.84;;;23.93;34.43
77333;BME280;66408;51.326;12.070;2023-06-14T08:52:24;100878.53;;;24.18;35.12
77333;BME280;66408;51.326;12.070;2023-06-14T08:54:56;100879.94;;;24.38;34.31
77333;BME280;66408;51.326;12.070;2023-06-14T08:57:24;100883.22;;;24.47;33.59
77333;BME280;66408;51.326;12.070;2023-06-14T08:59:52;100888.03;;;24.54;33.83
77333;BME280;66408;51.326;12.070;2023-06-14T09:02:20;100876.09;;;24.53;34.71
77333;BME280;66408;51.326;12.070;2023-06-14T09:04:48;100883.38;;;24.68;34.24
77333;BME280;66408;51.326;12.070;2023-06-14T09:07:18;100892.50;;;25.20;33.34
77333;BME280;66408;51.326;12.070;2023-06-14T09:09:45;100889.00;;;24.79;32.10
77333;BME280;66408;51.326;12.070;2023-06-14T09:12:31;100892.44;;;24.62;32.67
77333;BME280;66408;51.326;12.070;2023-06-14T09:15:00;100906.63;;;24.94;32.33
77333;BME280;66408;51.326;12.070;2023-06-14T09:17:27;100895.72;;;25.29;32.10
77333;BME280;66408;51.326;12.070;2023-06-14T09:19:55;100891.97;;;25.76;31.53
77333;BME280;66408;51.326;12.070;2023-06-14T09:22:21;100903.53;;;25.89;31.53
77333;BME280;66408;51.326;12.070;2023-06-14T09:24:48;100900.72;;;25.86;32.00
77333;BME280;66408;51.326;12.070;2023-06-14T09:27:15;100898.34;;;25.84;31.63
77333;BME280;66408;51.326;12.070;2023-06-14T09:29:42;100899.44;;;25.58;32.20
77333;BME280;66408;51.326;12.070;2023-06-14T09:32:09;100903.44;;;25.61;31.73
77333;BME280;66408;51.326;12.070;2023-06-14T09:34:36;100901.59;;;26.11;30.95
77333;BME280;66408;51.326;12.070;2023-06-14T09:37:03;100891.72;;;26.53;30.21
77333;BME280;66408;51.326;12.070;2023-06-14T09:39:31;100901.25;;;26.59;29.75
77333;BME280;66408;51.326;12.070;2023-06-14T09:41:57;100884.13;;;26.78;29.81
77333;BME280;66408;51.326;12.070;2023-06-14T09:44:25;100880.13;;;26.86;29.82
77333;BME280;66408;51.326;12.070;2023-06-14T09:46:56;100889.69;;;26.89;29.33
77333;BME280;66408;51.326;12.070;2023-06-14T09:49:22;100881.72;;;26.59;28.93
77333;BME280;66408;51.326;12.070;2023-06-14T09:51:52;100886.50;;;26.87;28.78
77333;BME280;66408;51.326;12.070;2023-06-14T09:54:24;100878.50;;;27.17;28.38
77333;BME280;66408;51.326;12.070;2023-06-14T09:56:52;100876.94;;;28.00;27.43
77333;BME280;66408;51.326;12.070;2023-06-14T09:59:21;100872.59;;;27.92;27.14
77333;BME280;66408;51.326;12.070;2023-06-14T10:01:57;100888.44;;;28.16;26.24
77333;BME280;66408;51.326;12.070;2023-06-14T10:04:27;100881.97;;;27.57;27.04
77333;BME280;66408;51.326;12.070;2023-06-14T10:06:56;100880.81;;;27.36;27.25
77333;BME280;66408;51.326;12.070;2023-06-14T10:09:23;100874.28;;;27.78;27.96
77333;BME280;66408;51.326;12.070;2023-06-14T10:11:50;100875.22;;;28.20;26.66
77333;BME280;66408;51.326;12.070;2023-06-14T10:14:18;100866.97;;;27.99;27.16
77333;BME280;66408;51.326;12.070;2023-06-14T10:17:04;100863.34;;;28.02;27.33
77333;BME280;66408;51.326;12.070;2023-06-14T10:19:42;100874.88;;;28.18;27.33
77333;BME280;66408;51.326;12.070;2023-06-14T10:22:13;100864.78;;;27.62;27.16
77333;BME280;66408;51.326;12.070;2023-06-14T10:24:45;100867.25;;;27.42;28.60
77333;BME280;66408;51.326;12.070;2023-06-14T10:27:15;100862.06;;;27.33;27.58
77333;BME280;66408;51.326;12.070;2023-06-14T10:32:21;100861.69;;;27.31;27.57
77333;BME280;66408;51.326;12.070;2023-06-14T10:34:54;100870.09;;;27.21;27.82
77333;BME280;66408;51.326;12.070;2023-06-14T10:37:22;100866.78;;;27.61;27.46
77333;BME280;66408;51.326;12.070;2023-06-14T10:39:50;100872.53;;;28.02;26.71
77333;BME280;66408;51.326;12.070;2023-06-14T10:42:17;100866.72;;;28.38;26.31
77333;BME280;66408;51.326;12.070;2023-06-14T10:47:36;100867.38;;;28.52;24.89
77333;BME280;66408;51.326;12.070;2023-06-14T10:50:09;100864.22;;;28.47;26.07
77333;BME280;66408;51.326;12.070;2023-06-14T10:52:42;100872.63;;;28.47;25.29
77333;BME280;66408;51.326;12.070;2023-06-14T10:57:53;100862.69;;;29.21;24.70
77333;BME280;66408;51.326;12.070;2023-06-14T11:00:27;100864.66;;;28.90;25.48
77333;BME280;66408;51.326;12.070;2023-06-14T11:05:54;100857.50;;;28.37;26.53
77333;BME280;66408;51.326;12.070;2023-06-14T11:10:58;100853.41;;;28.93;25.53
77333;BME280;66408;51.326;12.070;2023-06-14T11:13:26;100850.03;;;29.09;25.85
77333;BME280;66408;51.326;12.070;2023-06-14T11:15:57;100838.94;;;29.33;26.41
77333;BME280;66408;51.326;12.070;2023-06-14T11:18:24;100849.00;;;29.91;25.52
77333;BME280;66408;51.326;12.070;2023-06-14T11:20:51;100847.88;;;29.85;25.43
77333;BME280;66408;51.326;12.070;2023-06-14T11:23:18;100844.50;;;28.61;26.83
77333;BME280;66408;51.326;12.070;2023-06-14T11:25:51;100845.06;;;27.86;27.48
77333;BME280;66408;51.326;12.070;2023-06-14T11:28:18;100838.28;;;27.87;27.83
77333;BME280;66408;51.326;12.070;2023-06-14T11:31:02;100837.38;;;27.21;28.29
77333;BME280;66408;51.326;12.070;2023-06-14T11:33:29;100846.69;;;26.40;29.77
77333;BME280;66408;51.326;12.070;2023-06-14T11:35:56;100846.66;;;26.08;29.99
77333;BME280;66408;51.326;12.070;2023-06-14T11:38:23;100830.69;;;26.72;30.37
77333;BME280;66408;51.326;12.070;2023-06-14T11:40:50;100828.69;;;27.05;29.05
77333;BME280;66408;51.326;12.070;2023-06-14T11:43:16;100843.88;;;26.61;29.28
77333;BME280;66408;51.326;12.070;2023-06-14T11:45:48;100840.66;;;26.06;30.23
77333;BME280;66408;51.326;12.070;2023-06-14T11:48:40;100854.16;;;25.86;30.30
77333;BME280;66408;51.326;12.070;2023-06-14T11:51:07;100848.22;;;26.09;29.71
77333;BME280;66408;51.326;12.070;2023-06-14T11:53:34;100840.63;;;25.70;30.12
77333;BME280;66408;51.326;12.070;2023-06-14T11:56:02;100844.88;;;25.47;31.33
77333;BME280;66408;51.326;12.070;2023-06-14T11:58:29;100843.09;;;25.10;31.61
77333;BME280;66408;51.326;12.070;2023-06-14T12:00:56;100838.19;;;24.89;32.34
77333;BME280;66408;51.326;12.070;2023-06-14T12:03:25;100832.03;;;25.17;32.45
77333;BME280;66408;51.326;12.070;2023-06-14T12:06:12;100839.06;;;25.91;30.96
77333;BME280;66408;51.326;12.070;2023-06-14T12:08:38;100835.38;;;25.58;30.72
77333;BME280;66408;51.326;12.070;2023-06-14T12:11:15;100835.22;;;25.19;31.34
77333;BME280;66408;51.326;12.070;2023-06-14T12:13:43;100834.97;;;24.80;31.65
77333;BME280;66408;51.326;12.070;2023-06-14T12:16:11;100832.78;;;25.07;31.71
77333;BME280;66408;51.326;12.070;2023-06-14T12:18:39;100825.94;;;26.02;31.36
77333;BME280;66408;51.326;12.070;2023-06-14T12:21:08;100813.56;;;26.95;28.49
77333;BME280;66408;51.326;12.070;2023-06-14T12:23:45;100809.66;;;27.69;28.09
77333;BME280;66408;51.326;12.070;2023-06-14T12:26:16;100814.66;;;27.19;28.08
77333;BME280;66408;51.326;12.070;2023-06-14T12:28:47;100811.47;;;27.13;28.62
77333;BME280;66408;51.326;12.070;2023-06-14T12:31:15;100800.09;;;27.67;27.64
77333;BME280;66408;51.326;12.070;2023-06-14T12:33:42;100806.19;;;27.44;28.25
77333;BME280;66408;51.326;12.070;2023-06-14T12:36:10;100810.41;;;26.68;28.86
77333;BME280;66408;51.326;12.070;2023-06-14T12:38:37;100811.19;;;25.84;30.70
77333;BME280;66408;51.326;12.070;2023-06-14T12:41:04;100816.75;;;25.91;31.06
77333;BME280;66408;51.326;12.070;2023-06-14T12:43:30;100809.25;;;26.30;30.05
77333;BME280;66408;51.326;12.070;2023-06-14T12:45:57;100815.53;;;26.84;29.25
77333;BME280;66408;51.326;12.070;2023-06-14T12:48:24;100804.69;;;27.14;28.75
77333;BME280;66408;51.326;12.070;2023-06-14T12:50:51;100811.03;;;27.29;28.89
77333;BME280;66408;51.326;12.070;2023-06-14T12:53:18;100808.13;;;27.47;28.65
77333;BME280;66408;51.326;12.070;2023-06-14T12:55:44;100803.63;;;27.74;28.57
77333;BME280;66408;51.326;12.070;2023-06-14T12:58:11;100809.00;;;27.33;29.16
77333;BME280;66408;51.326;12.070;2023-06-14T13:00:40;100811.94;;;26.87;30.09
77333;BME280;66408;51.326;12.070;2023-06-14T13:03:07;100814.00;;;26.19;30.98
77333;BME280;66408;51.326;12.070;2023-06-14T13:05:33;100819.50;;;25.73;32.31
77333;BME280;66408;51.326;12.070;2023-06-14T13:08:00;100822.53;;;25.29;33.22